createdAt,value
2023-01-22T00:02:00.879Z,22.70
2023-01-22T00:04:31.075Z,22.60
2023-01-22T00:07:02.179Z,21.07
2023-01-22T00:09:33.181Z,21.73
2023-01-22T00:12:03.538Z,22.20
2023-01-22T00:14:37.264Z,23.63
2023-01-22T00:17:08.853Z,22.87
2023-01-22T00:19:38.672Z,23.70
2023-01-22T00:22:07.560Z,21.83
2023-01-22T00:24:37.734Z,22.17
2023-01-22T00:27:08.160Z,22.93
2023-01-22T00:29:40.970Z,22.33
2023-01-22T00:32:09.300Z,21.93
2023-01-22T00:34:37.794Z,21.63
2023-01-22T00:37:05.953Z,21.60
2023-01-22T00:39:34.135Z,19.97
2023-01-22T00:45:25.776Z,19.77
2023-01-22T00:47:54.618Z,18.83
2023-01-22T00:50:23.073Z,20.60
2023-01-22T00:52:51.703Z,19.50
2023-01-22T00:55:20.310Z,19.40
2023-01-22T00:57:48.648Z,20.97
2023-01-22T01:00:18.590Z,20.00
2023-01-22T01:03:16.604Z,21.10
2023-01-22T01:05:44.955Z,20.37
2023-01-22T01:08:13.159Z,20.50
2023-01-22T01:10:41.307Z,21.57
2023-01-22T01:13:09.418Z,21.70
2023-01-22T01:15:37.780Z,20.77
2023-01-22T01:18:09.144Z,21.13
2023-01-22T01:20:37.385Z,21.53
2023-01-22T01:23:06.005Z,20.13
2023-01-22T01:25:35.101Z,21.63
2023-01-22T01:28:05.272Z,21.20
2023-01-22T01:30:33.652Z,20.40
2023-01-22T01:33:01.865Z,22.60
2023-01-22T01:35:31.457Z,21.57
2023-01-22T01:37:59.894Z,20.53
2023-01-22T01:40:28.156Z,20.87
2023-01-22T01:42:56.588Z,21.03
2023-01-22T01:45:30.706Z,20.70
2023-01-22T01:48:07.475Z,21.43
2023-01-22T01:50:38.211Z,21.63
2023-01-22T01:53:07.813Z,21.67
2023-01-22T01:55:36.972Z,20.33
2023-01-22T01:58:10.472Z,20.30
2023-01-22T02:00:40.475Z,21.63
2023-01-22T02:03:08.793Z,21.27
2023-01-22T02:05:39.790Z,20.07
2023-01-22T02:08:08.967Z,20.47
2023-01-22T02:10:37.814Z,20.17
2023-01-22T02:13:10.236Z,21.60
2023-01-22T02:15:39.332Z,20.37
2023-01-22T02:18:07.805Z,21.63
2023-01-22T02:20:38.468Z,21.70
2023-01-22T02:23:09.317Z,21.33
2023-01-22T02:25:37.715Z,20.63
2023-01-22T02:28:06.495Z,19.67
2023-01-22T02:30:35.447Z,21.73
2023-01-22T02:33:03.910Z,21.10
2023-01-22T02:35:32.142Z,21.63
2023-01-22T02:38:01.941Z,20.50
2023-01-22T02:40:30.325Z,19.03
2023-01-22T02:42:59.985Z,21.53
2023-01-22T02:45:28.542Z,21.37
2023-01-22T02:47:56.796Z,20.03
2023-01-22T02:50:25.098Z,20.23
2023-01-22T02:52:54.696Z,21.47
2023-01-22T02:55:24.471Z,20.00
2023-01-22T02:57:53.082Z,20.57
2023-01-22T03:00:22.038Z,21.37
2023-01-22T03:02:51.769Z,20.30
2023-01-22T03:05:20.278Z,20.10
2023-01-22T03:07:48.647Z,19.90
2023-01-22T03:10:19.693Z,20.33
2023-01-22T03:13:07.857Z,19.83
2023-01-22T03:15:57.081Z,21.23
2023-01-22T03:18:42.994Z,21.87
2023-01-22T03:21:15.751Z,19.73
2023-01-22T03:23:44.705Z,21.43
2023-01-22T03:26:12.996Z,20.20
2023-01-22T03:28:42.909Z,21.10
2023-01-22T03:31:11.426Z,19.70
2023-01-22T03:33:40.158Z,19.97
2023-01-22T03:36:11.604Z,20.77
2023-01-22T03:38:45.530Z,20.50
2023-01-22T03:41:18.910Z,20.60
2023-01-22T03:43:50.764Z,18.67
2023-01-22T03:46:22.645Z,20.27
2023-01-22T03:48:55.116Z,20.07
2023-01-22T03:51:24.157Z,20.10
2023-01-22T03:53:52.554Z,19.83
2023-01-22T03:56:22.750Z,20.33
2023-01-22T03:58:53.307Z,18.87
2023-01-22T04:01:26.575Z,19.20
2023-01-22T04:03:55.100Z,18.57
2023-01-22T04:06:26.454Z,19.47
2023-01-22T04:08:55.744Z,19.30
2023-01-22T04:11:29.668Z,18.73
2023-01-22T04:13:59.885Z,19.07
2023-01-22T04:16:31.221Z,19.37
2023-01-22T04:18:59.521Z,19.67
2023-01-22T04:21:50.818Z,19.63
2023-01-22T04:24:21.037Z,18.33
2023-01-22T04:26:49.782Z,19.00
2023-01-22T04:29:22.456Z,19.00
2023-01-22T04:31:53.582Z,19.73
2023-01-22T04:34:28.986Z,17.83
2023-01-22T04:37:05.588Z,18.67
2023-01-22T04:39:36.266Z,18.10
2023-01-22T04:42:05.073Z,19.43
2023-01-22T04:44:35.550Z,18.63
2023-01-22T04:47:03.789Z,18.43
2023-01-22T04:49:33.017Z,19.47
2023-01-22T04:52:01.703Z,18.50
2023-01-22T04:54:31.603Z,19.47
2023-01-22T04:57:00.060Z,19.50
2023-01-22T04:59:28.382Z,19.47
2023-01-22T05:01:59.105Z,18.63
2023-01-22T05:04:27.824Z,18.80
2023-01-22T05:06:56.174Z,19.57
2023-01-22T05:09:25.596Z,18.87
2023-01-22T05:11:56.080Z,21.63
2023-01-22T05:14:25.263Z,19.70
2023-01-22T05:16:53.731Z,19.13
2023-01-22T05:19:23.787Z,18.93
2023-01-22T05:21:52.428Z,19.70
2023-01-22T05:24:21.518Z,18.43
2023-01-22T05:26:49.901Z,18.90
2023-01-22T05:29:28.681Z,19.30
2023-01-22T05:32:26.313Z,18.40
2023-01-22T05:34:58.249Z,18.20
2023-01-22T05:37:27.286Z,20.00
2023-01-22T05:39:56.431Z,17.83
2023-01-22T05:42:25.318Z,17.27
2023-01-22T05:44:53.827Z,19.43
2023-01-22T05:47:25.566Z,17.77
2023-01-22T05:50:12.058Z,17.67
2023-01-22T05:52:40.600Z,18.23
2023-01-22T05:55:09.948Z,18.23
2023-01-22T05:57:43.440Z,19.30
2023-01-22T06:00:14.228Z,18.37
2023-01-22T06:02:48.635Z,17.80
2023-01-22T06:05:19.185Z,18.07
2023-01-22T06:07:52.673Z,18.10
2023-01-22T06:10:21.235Z,18.40
2023-01-22T06:12:49.748Z,17.43
2023-01-22T06:15:18.748Z,17.60
2023-01-22T06:17:54.283Z,19.10
2023-01-22T06:20:24.398Z,17.60
2023-01-22T06:22:56.187Z,17.73
2023-01-22T06:25:25.247Z,18.23
2023-01-22T06:28:16.322Z,17.63
2023-01-22T06:30:47.171Z,19.00
2023-01-22T06:33:16.953Z,18.87
2023-01-22T06:35:46.705Z,19.03
2023-01-22T06:38:18.833Z,17.40
2023-01-22T06:40:54.786Z,17.27
2023-01-22T06:43:27.789Z,18.73
2023-01-22T06:45:59.204Z,18.30
2023-01-22T06:48:57.614Z,18.37
2023-01-22T06:51:32.551Z,17.23
2023-01-22T06:54:02.734Z,18.83
2023-01-22T06:56:35.556Z,16.97
2023-01-22T06:59:10.496Z,17.57
2023-01-22T07:01:42.295Z,17.90
2023-01-22T07:04:12.672Z,17.70
2023-01-22T07:06:47.973Z,17.37
2023-01-22T07:09:16.311Z,16.73
2023-01-22T07:11:44.771Z,16.57
2023-01-22T07:14:13.028Z,17.00
2023-01-22T07:16:41.642Z,16.47
2023-01-22T07:19:09.911Z,17.33
2023-01-22T07:21:39.942Z,16.60
2023-01-22T07:24:12.981Z,16.57
2023-01-22T07:26:44.127Z,17.57
2023-01-22T07:29:15.701Z,16.73
2023-01-22T07:31:49.941Z,15.53
2023-01-22T07:34:27.101Z,15.93
2023-01-22T07:37:00.131Z,16.70
2023-01-22T07:39:30.764Z,16.23
2023-01-22T07:42:05.002Z,16.00
2023-01-22T07:44:43.324Z,15.33
2023-01-22T07:47:17.209Z,16.33
2023-01-22T07:49:54.912Z,14.80
2023-01-22T07:52:26.876Z,15.70
2023-01-22T07:55:03.011Z,15.23
2023-01-22T07:57:40.666Z,15.27
2023-01-22T08:00:19.722Z,15.63
2023-01-22T08:03:11.660Z,14.60
2023-01-22T08:05:49.032Z,15.67
2023-01-22T08:08:28.081Z,15.77
2023-01-22T08:11:09.743Z,16.73
2023-01-22T08:13:52.690Z,16.53
2023-01-22T08:16:28.690Z,15.97
2023-01-22T08:19:08.958Z,14.63
2023-01-22T08:21:46.096Z,15.40
2023-01-22T08:24:23.478Z,15.60
2023-01-22T08:26:56.289Z,15.60
2023-01-22T08:29:25.265Z,14.63
2023-01-22T08:31:54.271Z,15.07
2023-01-22T08:35:00.385Z,16.23
2023-01-22T08:37:28.773Z,15.87
2023-01-22T08:39:57.924Z,15.53
2023-01-22T08:42:27.925Z,15.27
2023-01-22T08:44:56.774Z,15.30
2023-01-22T08:47:25.711Z,14.70
2023-01-22T08:49:54.267Z,14.67
2023-01-22T08:52:22.601Z,15.47
2023-01-22T08:54:50.887Z,14.77
2023-01-22T08:57:19.056Z,14.97
2023-01-22T09:00:00.438Z,15.03
2023-01-22T09:02:29.583Z,14.93
2023-01-22T09:04:57.814Z,15.60
2023-01-22T09:07:26.099Z,15.07
2023-01-22T09:09:54.513Z,15.23
2023-01-22T09:12:22.684Z,14.77
2023-01-22T09:14:52.384Z,15.67
2023-01-22T10:17:38.485Z,16.50
2023-01-22T10:20:12.437Z,17.23
2023-01-22T10:22:40.779Z,16.20
2023-01-22T10:25:14.398Z,16.67
2023-01-22T10:27:42.978Z,16.83
2023-01-22T10:30:20.213Z,16.30
2023-01-22T10:32:59.811Z,15.93
2023-01-22T10:35:31.877Z,16.13
2023-01-22T10:38:01.185Z,16.30
2023-01-22T10:40:31.733Z,16.37
2023-01-22T10:43:05.351Z,16.77
2023-01-22T10:45:33.476Z,16.07
2023-01-22T10:48:06.727Z,16.27
2023-01-22T10:50:36.428Z,15.30
2023-01-22T10:53:05.561Z,15.57
2023-01-22T10:58:31.760Z,15.97
2023-01-22T11:01:02.813Z,17.40
2023-01-22T11:03:34.174Z,16.27
2023-01-22T11:06:08.156Z,16.77
2023-01-22T11:08:45.259Z,17.03
2023-01-22T11:11:15.646Z,15.80
2023-01-22T11:13:56.333Z,16.37
2023-01-22T11:16:25.886Z,17.27
2023-01-22T11:18:59.046Z,16.23
2023-01-22T11:21:30.834Z,15.27
2023-01-22T11:24:04.388Z,16.60
2023-01-22T11:26:44.818Z,16.20
2023-01-22T11:29:26.232Z,15.27
2023-01-22T11:32:08.531Z,15.17
2023-01-22T11:34:48.805Z,14.93
2023-01-22T11:37:20.663Z,15.20
2023-01-22T11:39:58.339Z,14.43
2023-01-22T11:42:37.104Z,15.33
2023-01-22T11:45:18.256Z,14.57
2023-01-22T11:48:22.081Z,14.70
2023-01-22T11:50:56.689Z,14.90
2023-01-22T11:53:43.666Z,14.97
2023-01-22T11:56:25.034Z,13.90
2023-01-22T11:58:57.785Z,15.27
2023-01-22T12:01:34.096Z,15.27
2023-01-22T12:04:17.416Z,15.30
2023-01-22T12:07:17.203Z,15.40
2023-01-22T12:09:55.019Z,15.90
2023-01-22T12:12:35.740Z,15.07
2023-01-22T12:15:19.388Z,15.07
2023-01-22T12:18:13.747Z,14.87
2023-01-22T12:21:00.846Z,14.97
2023-01-22T12:23:42.685Z,15.97
2023-01-22T12:26:48.805Z,14.87
2023-01-22T12:29:32.194Z,15.27
2023-01-22T12:32:11.175Z,15.63
2023-01-22T12:34:44.194Z,15.27
2023-01-22T12:37:18.405Z,16.30
2023-01-22T12:39:52.968Z,15.90
2023-01-22T12:42:34.842Z,15.50
2023-01-22T12:45:36.907Z,16.40
2023-01-22T12:48:18.910Z,17.47
2023-01-22T12:50:57.591Z,17.10
2023-01-22T12:53:36.407Z,18.07
2023-01-22T12:56:17.787Z,18.70
2023-01-22T12:58:57.516Z,18.37
2023-01-22T13:01:33.749Z,19.87
2023-01-22T13:04:04.290Z,19.37
2023-01-22T13:09:45.201Z,19.33
2023-01-22T13:13:41.782Z,18.47
2023-01-22T13:21:19.702Z,17.07
2023-01-22T13:27:44.283Z,18.00
2023-01-22T13:30:37.835Z,17.70
2023-01-22T13:33:52.881Z,17.70
2023-01-22T13:38:15.573Z,16.00
2023-01-22T13:47:51.604Z,16.90
2023-01-22T13:54:32.211Z,18.17
2023-01-22T14:11:50.167Z,8.93
2023-01-22T14:56:31.991Z,8.20
2023-01-22T14:59:04.924Z,8.97
2023-01-22T15:01:36.543Z,8.07
2023-01-22T15:04:08.602Z,8.27
2023-01-22T15:11:32.341Z,9.03
2023-01-22T15:14:03.594Z,10.63
2023-01-22T15:16:34.855Z,8.93
2023-01-22T15:19:04.208Z,9.20
2023-01-22T15:21:33.540Z,8.60
2023-01-22T15:24:02.864Z,9.00
2023-01-22T15:26:39.306Z,8.87
2023-01-22T15:29:10.642Z,8.90
2023-01-22T15:31:40.868Z,9.07
2023-01-22T15:34:11.009Z,9.57
2023-01-22T15:36:41.043Z,10.37
2023-01-22T15:39:11.540Z,9.70
2023-01-22T15:41:53.316Z,9.57
2023-01-22T15:44:22.961Z,9.93
2023-01-22T15:46:53.579Z,11.40
2023-01-22T15:49:23.657Z,12.83
2023-01-22T15:51:55.143Z,12.07
2023-01-22T15:54:28.640Z,13.07
2023-01-22T15:57:00.348Z,13.73
2023-01-22T15:59:33.800Z,12.60
2023-01-22T16:02:04.498Z,10.70
2023-01-22T16:04:36.958Z,11.33
2023-01-22T16:07:06.987Z,10.97
2023-01-22T16:09:36.318Z,11.37
2023-01-22T16:12:09.217Z,10.83
2023-01-22T16:14:38.899Z,10.50
2023-01-22T16:17:08.890Z,10.07
2023-01-22T16:19:37.884Z,9.67
2023-01-22T16:22:08.168Z,9.17
2023-01-22T16:25:03.270Z,10.17
2023-01-22T16:27:53.388Z,11.40
2023-01-22T16:30:23.090Z,10.67
2023-01-22T16:32:54.492Z,10.40
2023-01-22T16:35:25.386Z,10.13
2023-01-22T16:37:54.872Z,11.47
2023-01-22T16:40:25.128Z,12.20
2023-01-22T16:43:03.757Z,11.97
2023-01-22T16:45:33.941Z,10.50
2023-01-22T16:48:03.416Z,11.23
2023-01-22T16:50:37.232Z,11.20
2023-01-22T16:53:11.933Z,10.97
2023-01-22T16:55:42.805Z,11.37
2023-01-22T16:58:13.842Z,11.37
2023-01-22T17:00:42.747Z,12.13
2023-01-22T17:03:11.526Z,11.40
2023-01-22T17:05:40.115Z,12.23
2023-01-22T17:08:09.692Z,12.13
2023-01-22T17:10:38.429Z,12.33
2023-01-22T17:13:07.891Z,12.60
2023-01-22T17:15:41.017Z,12.33
2023-01-22T17:18:10.275Z,12.73
2023-01-22T17:20:39.989Z,12.90
2023-01-22T17:23:09.162Z,12.80
2023-01-22T17:25:41.747Z,13.03
2023-01-22T17:28:10.716Z,12.33
2023-01-22T17:30:41.645Z,12.87
2023-01-22T17:35:40.172Z,13.53
2023-01-22T17:38:10.704Z,13.47
2023-01-22T17:40:40.750Z,13.20
2023-01-22T17:43:10.368Z,13.10
2023-01-22T17:45:42.005Z,13.40
2023-01-22T17:48:10.938Z,13.60
2023-01-22T17:50:40.547Z,13.00
2023-01-22T17:53:10.253Z,14.27
2023-01-22T17:55:40.431Z,12.57
2023-01-22T18:02:17.370Z,14.00
2023-01-22T18:04:46.848Z,13.63
2023-01-22T18:07:31.040Z,13.10
2023-01-22T18:10:03.099Z,13.53
2023-01-22T18:12:35.627Z,13.37
2023-01-22T18:15:07.550Z,13.40
2023-01-22T18:17:43.388Z,12.57
2023-01-22T18:20:16.130Z,14.33
2023-01-22T18:22:46.103Z,13.67
2023-01-22T18:25:16.842Z,14.10
2023-01-22T18:27:46.567Z,13.77
2023-01-22T18:30:19.213Z,14.07
2023-01-22T18:32:58.835Z,14.27
2023-01-22T18:35:31.109Z,14.67
2023-01-22T18:38:03.548Z,15.77
2023-01-22T18:40:36.628Z,14.40
2023-01-22T18:43:11.073Z,15.20
2023-01-22T18:45:47.229Z,14.00
2023-01-22T18:48:21.590Z,14.43
2023-01-22T18:50:56.366Z,14.60
2023-01-22T18:53:28.149Z,14.03
2023-01-22T18:56:03.141Z,13.07
2023-01-22T18:58:38.595Z,15.33
2023-01-22T19:01:13.079Z,15.53
2023-01-22T19:03:44.747Z,15.47
2023-01-22T19:06:20.927Z,14.73
2023-01-22T19:08:52.443Z,15.90
2023-01-22T19:11:24.679Z,15.67
2023-01-22T19:13:54.834Z,15.43
2023-01-22T19:16:23.915Z,15.20
2023-01-22T19:18:56.850Z,15.77
2023-01-22T19:21:26.231Z,15.33
2023-01-22T19:23:56.138Z,15.00
2023-01-22T19:26:26.340Z,15.63
2023-01-22T19:28:57.490Z,15.70
2023-01-22T19:31:27.396Z,16.00
2023-01-22T19:33:57.909Z,15.10
2023-01-22T19:36:28.505Z,16.10
2023-01-22T19:38:57.569Z,16.10
2023-01-22T19:41:27.173Z,15.93
2023-01-22T19:43:56.264Z,15.83
2023-01-22T19:46:26.005Z,15.57
2023-01-22T19:48:55.371Z,16.17
2023-01-22T19:51:27.165Z,15.57
2023-01-22T19:53:55.978Z,16.20
2023-01-22T19:56:30.769Z,16.80
2023-01-22T19:59:01.037Z,15.37
2023-01-22T20:01:29.409Z,16.27
2023-01-22T20:03:57.797Z,15.57
2023-01-22T20:06:27.457Z,17.07
2023-01-22T20:08:57.457Z,17.40
2023-01-22T20:11:26.423Z,16.87
2023-01-22T20:13:54.990Z,17.20
2023-01-22T20:16:25.370Z,15.70
2023-01-22T20:18:55.631Z,15.67
2023-01-22T20:21:24.719Z,16.60
2023-01-22T20:23:54.438Z,16.80
2023-01-22T20:26:23.646Z,16.77
2023-01-22T20:28:52.103Z,16.63
2023-01-22T20:31:25.259Z,17.37
2023-01-22T20:33:55.736Z,17.00
2023-01-22T20:36:25.444Z,18.10
2023-01-22T20:38:56.329Z,17.50
2023-01-22T20:41:27.547Z,17.33
2023-01-22T20:43:57.077Z,17.37
2023-01-22T20:46:27.538Z,17.60
2023-01-22T20:48:58.286Z,17.43
2023-01-22T20:51:28.390Z,18.50
2023-01-22T20:53:59.327Z,17.67
2023-01-22T20:56:30.532Z,17.20
2023-01-22T20:59:00.094Z,16.77
2023-01-22T21:01:31.703Z,14.83
2023-01-22T21:04:01.085Z,16.13
2023-01-22T21:06:31.184Z,16.00
2023-01-22T21:09:02.112Z,15.50
2023-01-22T21:11:33.227Z,15.73
2023-01-22T21:14:04.177Z,15.47
2023-01-22T21:16:35.079Z,15.13
2023-01-22T21:19:06.275Z,15.60
2023-01-22T21:21:35.712Z,16.27
2023-01-22T21:24:06.106Z,16.47
2023-01-22T21:26:34.690Z,16.87
2023-01-22T21:29:07.976Z,17.63
2023-01-22T21:31:36.886Z,17.20
2023-01-22T21:34:07.874Z,16.43
2023-01-22T21:36:38.009Z,17.83
2023-01-22T21:39:10.041Z,16.93
2023-01-22T21:41:38.786Z,17.93
2023-01-22T21:44:25.381Z,16.47
2023-01-22T21:46:55.321Z,17.53
2023-01-22T21:49:24.674Z,16.33
2023-01-22T21:51:55.367Z,18.07
2023-01-22T21:54:27.185Z,19.50
2023-01-22T21:56:56.586Z,19.07
2023-01-22T21:59:25.287Z,20.20
2023-01-22T22:01:54.822Z,19.57
2023-01-22T22:04:24.216Z,20.00
2023-01-22T22:06:53.764Z,19.77
2023-01-22T22:09:25.839Z,19.37
2023-01-22T22:11:58.432Z,18.93
2023-01-22T22:14:27.331Z,19.87
2023-01-22T22:16:56.790Z,19.93
2023-01-22T22:19:25.679Z,21.33
2023-01-22T22:21:56.364Z,21.77
2023-01-22T22:24:26.311Z,21.13
2023-01-22T22:26:55.484Z,21.70
2023-01-22T22:29:26.662Z,20.50
2023-01-22T22:31:59.276Z,20.23
2023-01-22T22:34:58.855Z,20.03
2023-01-22T22:37:48.118Z,20.37
2023-01-22T22:40:21.031Z,21.70
2023-01-22T22:42:52.510Z,20.37
2023-01-22T22:45:22.233Z,21.37
2023-01-22T22:47:53.621Z,21.47
2023-01-22T22:50:22.490Z,19.60
2023-01-22T22:52:51.251Z,20.83
2023-01-22T22:55:21.327Z,23.30
2023-01-22T22:57:50.554Z,21.73
2023-01-22T23:00:29.180Z,18.93
2023-01-22T23:03:26.653Z,18.93
2023-01-22T23:06:18.584Z,19.80
2023-01-22T23:09:09.390Z,20.80
2023-01-22T23:12:02.740Z,18.77
2023-01-22T23:14:35.684Z,19.33
2023-01-22T23:17:27.224Z,19.60
2023-01-22T23:20:15.826Z,19.07
2023-01-22T23:23:08.867Z,19.30
2023-01-22T23:25:58.769Z,19.33
2023-01-22T23:28:37.784Z,19.60
2023-01-22T23:31:06.779Z,21.87
2023-01-22T23:33:49.356Z,21.63
2023-01-22T23:36:39.390Z,22.13
2023-01-22T23:39:44.025Z,20.00
2023-01-22T23:42:34.144Z,20.20
2023-01-22T23:45:25.903Z,21.63
2023-01-22T23:48:11.143Z,20.23
2023-01-22T23:50:49.067Z,22.03
2023-01-22T23:53:24.932Z,22.03
2023-01-22T23:56:11.040Z,21.63
2023-01-22T23:58:51.708Z,21.63
